Time;durP1;ratioP1;P1;durP2;ratioP2;P2;SDS_P1;SDS_P2;PMS_P1;PMS_P2;Temp;Humidity;BMP_temperature;BMP_pressure;BME280_temperature;BME280_humidity;BME280_pressure;Samples;Min_cycle;Max_cycle;Signal;HPM_P1;HPM_P2
2021/03/02 00:00:03;;;;;;;5.68;3.60;;;30.40;84.30;;;;;;5129726;27;20274;-49
2021/03/02 00:02:34;;;;;;;6.20;3.83;;;30.40;85.10;;;;;;5076765;28;20213;-47
2021/03/02 00:05:05;;;;;;;6.15;4.15;;;30.40;84.50;;;;;;5033742;28;20251;-49
2021/03/02 00:07:36;;;;;;;5.75;3.60;;;30.40;84.50;;;;;;5044980;28;20648;-49
2021/03/02 00:10:07;;;;;;;9.68;4.50;;;30.40;84.60;;;;;;5046378;28;20377;-51
2021/03/02 00:12:41;;;;;;;5.75;4.38;;;30.40;84.70;;;;;;5045347;28;20697;-51
2021/03/02 00:15:13;;;;;;;5.03;3.97;;;30.40;84.80;;;;;;5045476;28;20238;-52
2021/03/02 00:17:48;;;;;;;4.60;3.60;;;30.40;84.70;;;;;;4985921;28;20247;-51
2021/03/02 00:20:21;;;;;;;5.97;3.55;;;30.40;85.00;;;;;;4977471;28;20822;-52
2021/03/02 00:23:01;;;;;;;3.65;3.22;;;30.50;85.00;;;;;;4964479;28;20666;-50
2021/03/02 00:25:32;;;;;;;4.32;3.88;;;30.40;85.20;;;;;;4966497;28;20266;-49
2021/03/02 00:28:06;;;;;;;4.25;3.85;;;30.40;84.90;;;;;;4966433;28;20684;-50
2021/03/02 00:30:36;;;;;;;3.70;3.40;;;30.40;85.10;;;;;;4967541;28;20212;-51
2021/03/02 00:33:08;;;;;;;3.58;3.25;;;30.50;85.10;;;;;;4979330;28;20290;-52
2021/03/02 00:35:39;;;;;;;6.00;3.35;;;30.50;85.10;;;;;;5007216;28;20215;-51
2021/03/02 00:38:09;;;;;;;3.78;3.45;;;30.50;85.20;;;;;;5025978;28;20647;-47
2021/03/02 00:40:39;;;;;;;3.70;3.40;;;30.50;85.30;;;;;;5015055;28;20653;-52
2021/03/02 00:43:12;;;;;;;4.95;3.45;;;30.60;85.50;;;;;;5026174;28;20226;-48
2021/03/02 00:45:42;;;;;;;4.45;3.58;;;30.60;85.40;;;;;;5026470;28;20206;-48
2021/03/02 00:48:13;;;;;;;4.72;3.65;;;30.60;85.40;;;;;;5036655;28;20750;-49
2021/03/02 00:50:44;;;;;;;4.05;3.65;;;30.70;85.50;;;;;;5064877;28;20198;-50
2021/03/02 00:53:15;;;;;;;4.50;3.67;;;30.70;85.50;;;;;;5083313;27;20207;-49
2021/03/02 00:55:46;;;;;;;6.30;3.70;;;30.80;85.30;;;;;;5131691;27;20621;-48
2021/03/02 00:58:18;;;;;;;4.15;3.63;;;30.80;85.30;;;;;;5131421;27;20579;-47
2021/03/02 01:00:48;;;;;;;4.35;3.95;;;30.90;85.20;;;;;;5130873;27;20662;-47
2021/03/02 01:03:19;;;;;;;5.75;4.78;;;30.90;85.00;;;;;;5130086;27;20210;-48
2021/03/02 01:05:49;;;;;;;4.68;4.28;;;30.90;84.90;;;;;;5132127;27;20223;-54
2021/03/02 01:08:20;;;;;;;4.43;4.03;;;31.00;84.80;;;;;;5131068;27;20264;-48
2021/03/02 01:10:51;;;;;;;5.93;5.32;;;31.10;84.80;;;;;;5130759;27;20222;-51
2021/03/02 01:13:23;;;;;;;5.13;4.55;;;31.10;84.60;;;;;;5131360;27;20207;-48
2021/03/02 01:15:54;;;;;;;5.05;4.43;;;31.20;84.50;;;;;;5131938;28;20327;-50
2021/03/02 01:18:25;;;;;;;5.32;4.22;;;31.30;83.90;;;;;;5131532;28;20244;-47
2021/03/02 01:20:56;;;;;;;5.63;5.13;;;31.30;84.00;;;;;;5130905;28;20233;-47
2021/03/02 01:23:27;;;;;;;5.20;4.43;;;31.40;82.50;;;;;;5130884;28;20207;-47
2021/03/02 01:25:57;;;;;;;4.10;3.70;;;31.40;82.60;;;;;;5131581;28;20298;-47
2021/03/02 01:28:29;;;;;;;4.85;3.13;;;31.50;82.60;;;;;;5130571;28;20214;-48
2021/03/02 01:30:59;;;;;;;4.35;3.78;;;31.60;82.30;;;;;;5121242;28;20688;-50
2021/03/02 01:33:30;;;;;;;4.53;4.13;;;31.70;82.00;;;;;;5120782;28;20682;-49
2021/03/02 01:36:01;;;;;;;4.13;3.60;;;31.70;81.20;;;;;;5117283;28;20187;-49
2021/03/02 01:38:32;;;;;;;4.50;4.10;;;31.70;81.00;;;;;;5119901;28;20908;-52
2021/03/02 01:41:03;;;;;;;4.53;4.13;;;31.80;80.80;;;;;;5120969;27;20740;-50
2021/03/02 01:43:40;;;;;;;3.55;3.25;;;31.90;80.70;;;;;;5118772;28;20703;-52
2021/03/02 01:46:10;;;;;;;3.83;3.53;;;31.90;80.10;;;;;;5119627;28;20195;-51
2021/03/02 01:48:41;;;;;;;3.75;3.13;;;31.90;79.80;;;;;;5124827;27;20709;-48
2021/03/02 01:51:12;;;;;;;3.67;3.38;;;32.00;79.70;;;;;;5127610;27;20697;-52
2021/03/02 01:53:42;;;;;;;4.50;3.45;;;32.10;79.60;;;;;;5128621;27;20196;-51
2021/03/02 01:56:13;;;;;;;3.33;3.03;;;32.10;79.30;;;;;;5127712;27;20195;-48
2021/03/02 01:58:45;;;;;;;3.75;3.20;;;32.20;78.90;;;;;;5123125;27;20191;-48
2021/03/02 02:01:16;;;;;;;4.38;3.17;;;32.20;78.60;;;;;;5120309;27;20207;-47
2021/03/02 02:03:47;;;;;;;3.42;2.95;;;32.30;78.30;;;;;;5127928;27;20191;-49
2021/03/02 02:06:20;;;;;;;3.63;3.00;;;32.30;78.10;;;;;;5133247;27;20248;-50
2021/03/02 02:08:55;;;;;;;3.10;2.88;;;32.30;77.20;;;;;;5133803;27;20651;-50
2021/03/02 02:11:36;;;;;;;3.13;2.58;;;32.40;77.20;;;;;;5130865;27;20191;-52
2021/03/02 02:14:11;;;;;;;3.50;2.70;;;32.40;76.50;;;;;;5135362;27;20450;-47
2021/03/02 02:16:43;;;;;;;2.85;2.65;;;32.40;76.40;;;;;;5138567;27;20219;-50
2021/03/02 02:19:26;;;;;;;2.67;2.47;;;32.50;76.40;;;;;;5134777;27;20202;-49
2021/03/02 02:22:10;;;;;;;3.00;2.65;;;32.50;75.90;;;;;;5075089;28;20196;-47
2021/03/02 02:24:49;;;;;;;3.28;2.97;;;32.60;75.40;;;;;;5075098;28;20250;-47
2021/03/02 02:27:21;;;;;;;3.03;2.83;;;32.60;75.10;;;;;;5077834;28;20224;-48
2021/03/02 02:29:52;;;;;;;3.50;3.20;;;32.60;75.10;;;;;;5076098;28;20209;-52
2021/03/02 02:32:23;;;;;;;3.28;3.00;;;32.60;75.00;;;;;;5072086;28;20243;-50
2021/03/02 02:34:54;;;;;;;3.67;3.28;;;32.70;75.10;;;;;;5004323;28;20208;-49
2021/03/02 02:37:24;;;;;;;3.53;2.72;;;32.70;75.30;;;;;;4998493;28;20208;-49
2021/03/02 02:39:55;;;;;;;5.13;3.80;;;32.70;75.40;;;;;;5001280;28;20224;-47
2021/03/02 02:42:27;;;;;;;9.15;7.85;;;32.70;75.00;;;;;;4963659;28;20201;-48
2021/03/02 02:44:57;;;;;;;11.45;10.30;;;32.80;74.70;;;;;;4910899;29;21004;-48
2021/03/02 02:47:28;;;;;;;8.20;6.85;;;32.80;74.60;;;;;;4912172;29;20214;-47
2021/03/02 02:49:59;;;;;;;5.70;4.72;;;32.80;74.60;;;;;;4907976;29;20235;-48
2021/03/02 02:52:29;;;;;;;3.92;3.63;;;32.90;74.60;;;;;;4924568;29;20843;-49
2021/03/02 02:55:00;;;;;;;3.80;3.50;;;32.90;74.70;;;;;;4951182;28;20206;-50
2021/03/02 02:57:32;;;;;;;4.03;3.72;;;33.00;74.80;;;;;;4952585;28;20232;-48
2021/03/02 03:00:03;;;;;;;4.03;3.63;;;33.10;74.20;;;;;;4950634;28;20402;-48
2021/03/02 03:02:33;;;;;;;4.43;4.00;;;33.10;74.20;;;;;;4932994;29;20698;-48
2021/03/02 03:05:06;;;;;;;3.92;3.50;;;33.20;73.90;;;;;;4936294;28;20238;-47
2021/03/02 03:07:38;;;;;;;4.07;3.78;;;33.30;73.70;;;;;;4984567;28;20279;-48
2021/03/02 03:10:22;;;;;;;3.63;3.33;;;33.30;73.20;;;;;;4978684;28;20251;-49
2021/03/02 03:12:54;;;;;;;4.10;3.80;;;33.40;73.10;;;;;;4998617;28;20206;-49
2021/03/02 03:15:24;;;;;;;5.40;3.80;;;33.40;72.90;;;;;;5052292;28;20234;-48
2021/03/02 03:17:56;;;;;;;3.63;3.33;;;33.50;73.20;;;;;;5078438;28;20250;-52
2021/03/02 03:20:27;;;;;;;4.25;3.85;;;33.60;73.30;;;;;;5071798;28;20217;-48
2021/03/02 03:22:58;;;;;;;4.00;3.63;;;33.60;72.70;;;;;;5073600;28;20291;-49
2021/03/02 03:25:28;;;;;;;4.65;4.25;;;33.70;72.40;;;;;;5022693;28;20211;-53
2021/03/02 03:28:01;;;;;;;5.20;4.00;;;33.70;71.50;;;;;;4979783;28;20287;-49
2021/03/02 03:30:32;;;;;;;4.63;4.15;;;33.70;72.10;;;;;;4971684;28;20602;-48
2021/03/02 03:33:03;;;;;;;5.57;4.57;;;33.80;72.20;;;;;;4946202;28;20213;-48
2021/03/02 03:35:34;;;;;;;3.83;3.53;;;33.80;71.50;;;;;;4975968;28;20252;-51
2021/03/02 03:38:05;;;;;;;4.35;3.97;;;33.80;71.60;;;;;;4974816;28;20222;-53
2021/03/02 03:40:36;;;;;;;3.38;3.15;;;33.90;72.00;;;;;;4978710;28;20279;-52
2021/03/02 03:43:08;;;;;;;5.10;4.70;;;33.90;71.90;;;;;;4974026;28;20275;-51
2021/03/02 03:45:39;;;;;;;4.82;4.43;;;34.00;70.40;;;;;;4974200;28;20210;-51
2021/03/02 03:48:10;;;;;;;4.18;3.78;;;34.00;69.90;;;;;;4976366;28;20214;-50
2021/03/02 03:50:43;;;;;;;4.70;4.00;;;34.00;69.60;;;;;;5007802;28;20248;-50
2021/03/02 03:53:14;;;;;;;4.85;4.18;;;34.00;69.80;;;;;;5014075;28;20655;-54
2021/03/02 03:55:46;;;;;;;4.47;4.05;;;34.00;69.30;;;;;;4957236;28;20213;-49
2021/03/02 03:58:19;;;;;;;5.35;4.85;;;34.10;69.80;;;;;;4969274;28;20198;-47
2021/03/02 04:00:51;;;;;;;5.88;4.18;;;34.10;69.60;;;;;;5013866;28;20395;-50
2021/03/02 04:03:21;;;;;;;4.75;4.35;;;34.20;70.10;;;;;;5024576;28;21191;-48
2021/03/02 04:05:53;;;;;;;5.70;5.20;;;34.30;70.20;;;;;;5059759;28;20724;-48
2021/03/02 04:08:23;;;;;;;5.38;4.88;;;34.30;69.70;;;;;;5062726;28;20296;-48
2021/03/02 04:10:54;;;;;;;5.78;5.28;;;34.30;68.80;;;;;;5061597;28;20209;-49
2021/03/02 04:13:26;;;;;;;6.90;6.20;;;34.40;68.50;;;;;;5055042;28;20213;-50
2021/03/02 04:15:59;;;;;;;7.78;6.97;;;34.40;68.60;;;;;;5054817;28;20240;-49
2021/03/02 04:18:30;;;;;;;7.28;6.57;;;34.50;68.40;;;;;;5057854;28;20760;-49
2021/03/02 04:21:01;;;;;;;7.15;6.50;;;34.50;68.80;;;;;;5057601;28;20226;-53
2021/03/02 04:23:31;;;;;;;6.53;6.03;;;34.60;67.90;;;;;;5061428;28;20210;-48
2021/03/02 04:26:01;;;;;;;8.60;5.97;;;34.60;67.40;;;;;;5063381;27;20665;-49
2021/03/02 04:28:33;;;;;;;7.25;6.65;;;34.60;67.30;;;;;;5128815;27;20195;-49
2021/03/02 04:31:04;;;;;;;6.88;6.38;;;34.60;67.20;;;;;;5138531;27;20247;-49
2021/03/02 04:33:34;;;;;;;6.53;5.93;;;34.60;66.90;;;;;;5125960;27;20191;-50
2021/03/02 04:36:06;;;;;;;7.57;6.88;;;34.60;67.10;;;;;;5136708;27;20225;-48
2021/03/02 04:38:37;;;;;;;7.53;6.82;;;34.60;66.40;;;;;;5140381;27;20218;-49
2021/03/02 04:41:08;;;;;;;7.80;7.15;;;34.60;66.60;;;;;;5141510;27;20239;-49
2021/03/02 04:43:40;;;;;;;8.73;8.02;;;34.50;66.70;;;;;;5137792;27;20191;-48
2021/03/02 04:46:10;;;;;;;8.85;8.25;;;34.50;67.00;;;;;;5125064;27;20639;-49
2021/03/02 04:48:41;;;;;;;9.00;8.30;;;34.60;67.30;;;;;;5127092;27;20286;-50
2021/03/02 04:51:12;;;;;;;8.32;7.63;;;34.60;66.70;;;;;;5122903;27;20654;-49
2021/03/02 04:53:42;;;;;;;7.00;6.40;;;34.60;66.90;;;;;;5107799;27;20203;-48
2021/03/02 04:56:13;;;;;;;8.25;7.65;;;34.70;67.40;;;;;;5118642;27;20207;-48
2021/03/02 04:58:44;;;;;;;9.73;8.93;;;34.80;66.70;;;;;;5126462;27;20234;-51
2021/03/02 05:01:15;;;;;;;9.43;8.68;;;34.90;66.50;;;;;;5126261;27;20211;-52
2021/03/02 05:03:46;;;;;;;9.07;8.45;;;35.00;66.20;;;;;;5113879;27;20212;-54
2021/03/02 05:06:16;;;;;;;8.45;7.75;;;35.00;65.50;;;;;;5125493;27;20207;-51
2021/03/02 05:08:47;;;;;;;10.65;9.85;;;35.20;65.80;;;;;;5125685;27;20226;-50
2021/03/02 05:11:17;;;;;;;8.90;8.20;;;35.20;64.60;;;;;;5126767;27;20188;-54
2021/03/02 05:13:49;;;;;;;9.40;8.70;;;35.30;65.10;;;;;;5126271;27;20207;-53
2021/03/02 05:16:20;;;;;;;7.57;7.00;;;35.30;63.10;;;;;;5125637;27;20201;-52
2021/03/02 05:18:50;;;;;;;7.00;6.50;;;35.30;63.40;;;;;;5124894;28;20233;-49
2021/03/02 05:21:21;;;;;;;7.45;6.75;;;35.40;63.00;;;;;;5115561;28;20208;-51
2021/03/02 05:23:51;;;;;;;7.25;6.57;;;35.40;62.30;;;;;;5126913;28;20192;-49
2021/03/02 05:26:22;;;;;;;7.38;6.88;;;35.50;62.80;;;;;;5121384;28;20203;-48
2021/03/02 05:28:57;;;;;;;7.45;6.85;;;35.50;62.10;;;;;;5123495;28;20222;-49
2021/03/02 05:31:27;;;;;;;8.13;7.43;;;35.50;62.50;;;;;;5126050;28;20633;-48
2021/03/02 05:33:58;;;;;;;8.05;7.35;;;35.60;62.10;;;;;;5126716;28;20210;-50
2021/03/02 05:36:29;;;;;;;7.75;7.15;;;35.70;62.00;;;;;;5126407;27;20288;-51
2021/03/02 05:39:00;;;;;;;7.35;6.85;;;35.70;61.80;;;;;;5130172;27;20658;-49
2021/03/02 05:41:31;;;;;;;6.63;6.13;;;35.90;62.30;;;;;;5142545;27;20288;-48
2021/03/02 05:44:03;;;;;;;5.63;5.13;;;36.00;62.30;;;;;;5139996;27;20233;-47
2021/03/02 05:46:36;;;;;;;6.10;5.35;;;36.10;63.10;;;;;;5124747;27;20199;-48
2021/03/02 05:49:07;;;;;;;6.10;5.50;;;36.20;62.90;;;;;;5130811;27;20191;-49
2021/03/02 05:51:38;;;;;;;6.47;5.65;;;36.30;63.00;;;;;;5127778;27;20751;-47
2021/03/02 05:54:08;;;;;;;5.82;5.35;;;36.30;62.60;;;;;;5066333;28;20255;-47
2021/03/02 05:56:39;;;;;;;5.47;4.97;;;36.30;61.90;;;;;;5064577;28;20208;-50
2021/03/02 05:59:10;;;;;;;5.70;5.15;;;36.30;62.80;;;;;;5063735;28;20655;-51
2021/03/02 06:01:41;;;;;;;5.60;5.10;;;36.30;63.00;;;;;;5057930;28;20304;-51
2021/03/02 06:04:16;;;;;;;6.05;5.20;;;36.30;63.20;;;;;;5067648;28;20316;-51
2021/03/02 06:06:47;;;;;;;5.68;4.78;;;36.30;63.00;;;;;;5069031;28;20944;-48
2021/03/02 06:09:20;;;;;;;5.82;4.88;;;36.30;63.30;;;;;;5069067;28;20241;-49
2021/03/02 06:11:50;;;;;;;5.90;5.40;;;36.30;62.40;;;;;;5068309;28;20233;-49
2021/03/02 06:14:22;;;;;;;5.93;5.30;;;36.30;62.40;;;;;;4968842;28;20259;-47
2021/03/02 06:16:56;;;;;;;5.03;4.53;;;36.30;62.70;;;;;;4969644;28;20742;-48
2021/03/02 06:19:43;;;;;;;6.10;5.60;;;36.30;62.10;;;;;;4999025;28;20250;-48
2021/03/02 06:22:33;;;;;;;5.13;4.65;;;36.30;61.70;;;;;;5007381;28;20238;-49
2021/03/02 06:25:04;;;;;;;5.00;4.60;;;36.30;62.60;;;;;;4998539;28;20227;-51
2021/03/02 06:27:34;;;;;;;5.57;5.07;;;36.30;62.40;;;;;;5008584;28;20215;-48
2021/03/02 06:30:16;;;;;;;5.55;4.97;;;36.30;62.70;;;;;;5007849;28;20651;-49
2021/03/02 06:32:48;;;;;;;4.88;4.53;;;36.30;62.90;;;;;;5007295;28;20231;-48
2021/03/02 06:35:31;;;;;;;6.00;5.45;;;36.40;62.30;;;;;;5012949;28;20540;-52
2021/03/02 06:38:02;;;;;;;5.90;5.40;;;36.40;61.30;;;;;;5014860;28;20206;-50
2021/03/02 06:40:42;;;;;;;6.10;5.50;;;36.50;60.20;;;;;;5007385;28;21015;-50
2021/03/02 06:43:31;;;;;;;8.85;5.53;;;36.60;59.60;;;;;;5000387;28;20218;-50
2021/03/02 06:46:03;;;;;;;5.85;4.85;;;36.60;60.80;;;;;;5099502;27;20211;-48
2021/03/02 06:48:34;;;;;;;6.00;5.50;;;36.70;60.90;;;;;;5137453;27;20195;-48
2021/03/02 06:51:05;;;;;;;5.72;5.22;;;36.80;59.30;;;;;;5140849;27;20179;-48
2021/03/02 06:53:35;;;;;;;5.30;4.90;;;36.80;58.70;;;;;;5145559;27;20187;-48
2021/03/02 06:56:13;;;;;;;5.32;4.32;;;36.80;58.60;;;;;;5147161;27;20191;-50
2021/03/02 06:58:44;;;;;;;5.70;5.20;;;36.90;59.80;;;;;;5146105;27;20738;-52
2021/03/02 07:01:15;;;;;;;5.80;5.38;;;36.90;59.30;;;;;;5145569;27;20578;-48
2021/03/02 07:03:47;;;;;;;4.75;4.35;;;36.90;58.20;;;;;;5131808;27;20215;-50
2021/03/02 07:06:18;;;;;;;5.10;4.70;;;36.90;59.40;;;;;;5131305;27;20534;-48
2021/03/02 07:08:49;;;;;;;4.50;4.13;;;36.90;58.80;;;;;;5141481;27;20219;-49
2021/03/02 07:11:19;;;;;;;4.38;3.72;;;36.90;59.60;;;;;;5130664;27;20196;-48
2021/03/02 07:13:49;;;;;;;4.30;3.72;;;36.90;60.00;;;;;;5137906;27;20214;-53
2021/03/02 07:16:20;;;;;;;4.70;4.30;;;36.90;59.20;;;;;;5126160;27;20698;-53
2021/03/02 07:18:51;;;;;;;5.07;4.68;;;36.90;58.70;;;;;;5140635;27;20240;-52
2021/03/02 07:21:23;;;;;;;5.80;5.20;;;37.00;58.10;;;;;;5142791;27;20261;-48
2021/03/02 07:23:55;;;;;;;4.75;4.35;;;37.10;57.50;;;;;;5125633;27;20195;-53
2021/03/02 07:26:25;;;;;;;4.90;4.50;;;37.10;57.80;;;;;;5126911;27;20257;-49
2021/03/02 07:28:56;;;;;;;5.20;4.70;;;37.10;57.10;;;;;;5113882;27;20200;-49
2021/03/02 07:31:28;;;;;;;4.25;3.95;;;37.20;56.70;;;;;;5125066;27;20608;-48
2021/03/02 07:34:00;;;;;;;4.10;3.70;;;37.20;57.20;;;;;;5113465;27;20286;-49
2021/03/02 07:36:35;;;;;;;3.70;3.40;;;37.30;57.40;;;;;;5118164;27;20826;-48
2021/03/02 07:39:17;;;;;;;3.70;3.40;;;37.30;56.80;;;;;;5128444;27;20211;-49
2021/03/02 07:41:48;;;;;;;3.28;2.97;;;37.40;56.70;;;;;;5127893;27;20215;-50
2021/03/02 07:44:18;;;;;;;4.00;3.45;;;37.40;57.20;;;;;;5126279;27;20188;-48
2021/03/02 07:47:04;;;;;;;3.65;3.20;;;37.40;56.80;;;;;;5120119;27;20179;-49
2021/03/02 07:49:37;;;;;;;6.07;4.00;;;37.50;56.80;;;;;;5091574;28;20204;-51
2021/03/02 07:52:26;;;;;;;6.40;3.50;;;37.50;56.70;;;;;;5082394;28;20316;-48
2021/03/02 07:55:21;;;;;;;5.53;3.40;;;37.50;56.90;;;;;;5084065;28;20931;-48
2021/03/02 07:58:07;;;;;;;3.42;3.13;;;37.60;56.60;;;;;;5084172;28;20197;-51
2021/03/02 08:00:37;;;;;;;3.33;3.03;;;37.60;56.90;;;;;;5022648;28;20445;-53
2021/03/02 08:03:31;;;;;;;3.72;3.10;;;37.70;56.70;;;;;;5023756;28;20210;-53
2021/03/02 08:06:02;;;;;;;3.22;3.00;;;37.70;56.50;;;;;;5023919;28;20227;-48
2021/03/02 08:08:33;;;;;;;3.50;2.78;;;37.80;56.30;;;;;;5023862;28;20249;-48
2021/03/02 08:11:28;;;;;;;3.10;2.58;;;37.80;56.10;;;;;;5023387;28;20567;-53
2021/03/02 08:13:59;;;;;;;3.70;2.75;;;37.90;56.00;;;;;;5023553;28;20659;-48
2021/03/02 08:16:54;;;;;;;3.92;2.90;;;37.90;55.60;;;;;;5024050;28;20218;-48
2021/03/02 08:19:42;;;;;;;3.25;2.58;;;38.00;55.80;;;;;;5023766;28;20294;-51
2021/03/02 08:22:50;;;;;;;3.35;2.80;;;38.00;55.90;;;;;;5056183;28;20264;-48
2021/03/02 08:25:28;;;;;;;3.28;2.80;;;38.00;55.80;;;;;;5073632;27;20272;-49
2021/03/02 08:28:03;;;;;;;3.47;3.00;;;38.00;55.40;;;;;;5128016;27;20199;-50
2021/03/02 08:30:37;;;;;;;4.35;2.80;;;38.00;55.60;;;;;;5127403;27;20540;-48
2021/03/02 08:33:09;;;;;;;3.40;2.78;;;38.00;55.40;;;;;;5126824;27;20285;-48
2021/03/02 08:35:42;;;;;;;6.03;2.70;;;38.00;55.40;;;;;;5126398;27;20341;-48
2021/03/02 08:38:14;;;;;;;3.63;3.33;;;38.10;55.00;;;;;;5127327;27;20202;-48
2021/03/02 08:40:46;;;;;;;3.20;2.90;;;38.10;54.30;;;;;;5128157;27;20212;-49
2021/03/02 08:43:20;;;;;;;3.10;2.80;;;38.00;54.60;;;;;;5125867;27;20286;-49
2021/03/02 08:45:51;;;;;;;2.90;2.58;;;38.00;54.80;;;;;;5126756;27;20203;-48
2021/03/02 08:48:33;;;;;;;2.80;2.60;;;38.00;55.10;;;;;;5111612;27;20843;-50
2021/03/02 08:51:06;;;;;;;4.95;3.60;;;38.10;55.00;;;;;;5115725;27;20196;-50
2021/03/02 08:53:40;;;;;;;3.20;2.90;;;38.10;54.90;;;;;;5123690;27;20214;-48
2021/03/02 08:56:18;;;;;;;3.60;3.10;;;38.10;55.10;;;;;;5118194;27;20211;-51
2021/03/02 08:58:50;;;;;;;3.75;3.25;;;38.20;54.80;;;;;;5125054;27;20207;-49
2021/03/02 09:01:28;;;;;;;4.18;3.03;;;38.10;54.10;;;;;;5115574;27;20281;-48
2021/03/02 09:04:09;;;;;;;3.25;2.85;;;38.10;54.50;;;;;;5124634;27;20892;-47
2021/03/02 09:06:42;;;;;;;3.28;2.70;;;38.10;54.60;;;;;;5118772;27;20690;-49
2021/03/02 09:09:12;;;;;;;3.20;2.90;;;38.10;54.90;;;;;;5121474;27;20694;-51
2021/03/02 09:11:43;;;;;;;3.75;3.25;;;38.10;54.90;;;;;;5112387;28;20192;-50
2021/03/02 09:14:14;;;;;;;3.40;3.10;;;38.10;54.50;;;;;;5118142;27;20362;-52
2021/03/02 09:16:46;;;;;;;3.63;2.70;;;38.10;54.20;;;;;;5115226;28;20224;-50
2021/03/02 09:19:18;;;;;;;3.92;3.08;;;38.10;54.70;;;;;;5121808;28;20231;-51
2021/03/02 09:21:51;;;;;;;3.78;3.30;;;38.20;54.50;;;;;;5123175;28;20592;-48
2021/03/02 09:24:40;;;;;;;3.00;2.70;;;38.20;54.00;;;;;;5115750;28;20203;-49
2021/03/02 09:27:12;;;;;;;3.90;3.10;;;38.20;54.70;;;;;;5114840;28;20191;-48
2021/03/02 09:29:43;;;;;;;4.05;2.85;;;38.20;54.40;;;;;;5122554;28;20199;-49
2021/03/02 09:32:13;;;;;;;3.72;3.42;;;38.20;54.00;;;;;;5125185;27;20283;-51
2021/03/02 09:34:44;;;;;;;3.33;3.03;;;38.30;53.60;;;;;;5056405;28;20305;-49
2021/03/02 09:37:17;;;;;;;3.28;2.97;;;38.40;53.80;;;;;;5061784;28;20541;-51
2021/03/02 09:39:56;;;;;;;3.78;3.38;;;38.40;53.50;;;;;;5062915;28;20323;-50
2021/03/02 09:42:28;;;;;;;3.28;2.90;;;38.40;52.60;;;;;;5062622;28;20821;-52
2021/03/02 09:44:59;;;;;;;3.53;3.22;;;38.50;53.10;;;;;;5062915;28;20732;-49
2021/03/02 09:47:30;;;;;;;4.07;3.67;;;38.50;53.20;;;;;;5060209;28;20217;-49
2021/03/02 09:50:01;;;;;;;5.30;3.95;;;38.60;52.90;;;;;;5063588;28;20292;-50
2021/03/02 09:52:39;;;;;;;3.47;3.17;;;38.70;52.50;;;;;;5063506;28;20635;-48
2021/03/02 09:55:15;;;;;;;4.32;4.03;;;38.80;52.30;;;;;;5062784;28;20208;-49
2021/03/02 09:57:54;;;;;;;5.13;3.90;;;38.80;52.40;;;;;;5063105;28;20201;-49
2021/03/02 10:00:28;;;;;;;4.45;4.05;;;38.90;52.80;;;;;;5123475;28;20218;-50
2021/03/02 10:03:36;;;;;;;4.05;3.65;;;38.90;52.10;;;;;;5116336;28;20552;-49
2021/03/02 10:06:12;;;;;;;4.47;4.07;;;39.00;52.50;;;;;;5124244;28;20584;-49
2021/03/02 10:08:44;;;;;;;5.00;4.50;;;39.10;51.80;;;;;;5120008;28;20199;-49
2021/03/02 10:11:23;;;;;;;4.47;4.07;;;39.10;51.30;;;;;;5126605;28;20188;-50
2021/03/02 10:13:54;;;;;;;4.13;3.83;;;39.10;51.10;;;;;;5125895;28;20226;-49
2021/03/02 10:16:27;;;;;;;4.30;4.00;;;39.10;50.90;;;;;;5126798;28;20203;-51
2021/03/02 10:19:02;;;;;;;5.07;4.20;;;39.10;51.00;;;;;;5127110;28;20300;-50
2021/03/02 10:21:40;;;;;;;4.63;4.22;;;39.10;50.90;;;;;;5126682;28;20654;-48
2021/03/02 10:24:19;;;;;;;4.63;4.30;;;39.10;50.80;;;;;;5127214;27;20195;-50
2021/03/02 10:26:50;;;;;;;4.22;3.83;;;39.10;50.50;;;;;;5130381;27;20281;-50
2021/03/02 10:29:20;;;;;;;4.97;4.57;;;39.00;51.20;;;;;;5130407;27;20191;-53
2021/03/02 10:31:51;;;;;;;4.28;3.97;;;39.10;51.40;;;;;;5129995;27;20198;-48
2021/03/02 10:34:22;;;;;;;4.60;4.20;;;39.10;51.70;;;;;;5121669;27;20226;-48
2021/03/02 10:36:54;;;;;;;5.75;5.20;;;39.20;51.80;;;;;;5117289;27;20291;-50
2021/03/02 10:39:26;;;;;;;6.32;5.72;;;39.40;51.80;;;;;;5122470;27;20696;-50
2021/03/02 10:41:56;;;;;;;6.00;5.40;;;39.50;52.00;;;;;;5130933;27;20219;-48
2021/03/02 10:44:26;;;;;;;6.00;4.70;;;39.80;51.60;;;;;;5130413;27;20203;-51
2021/03/02 10:46:57;;;;;;;4.80;4.40;;;40.00;51.30;;;;;;5130276;27;20216;-47
2021/03/02 10:49:28;;;;;;;5.50;5.00;;;40.10;50.90;;;;;;5129763;27;20199;-54
2021/03/02 10:51:58;;;;;;;5.03;4.63;;;40.10;50.40;;;;;;5129965;27;20295;-53
2021/03/02 10:54:30;;;;;;;6.18;4.53;;;40.10;50.30;;;;;;5129845;27;20200;-51
2021/03/02 10:57:01;;;;;;;5.20;4.15;;;40.00;50.50;;;;;;5129315;27;20647;-54
2021/03/02 10:59:32;;;;;;;4.53;4.22;;;39.90;50.50;;;;;;5065304;28;20213;-52
2021/03/02 11:02:02;;;;;;;4.38;3.97;;;39.90;50.50;;;;;;5065592;28;20372;-53
2021/03/02 11:04:33;;;;;;;4.65;4.25;;;39.90;50.80;;;;;;5065320;28;20225;-52
2021/03/02 11:07:04;;;;;;;4.55;4.10;;;39.80;51.00;;;;;;5064390;28;20197;-51
2021/03/02 11:09:36;;;;;;;4.32;4.03;;;39.80;51.00;;;;;;5065055;28;20575;-48
2021/03/02 11:12:07;;;;;;;6.03;4.68;;;39.80;51.10;;;;;;5065390;28;20653;-48
2021/03/02 11:14:37;;;;;;;5.63;4.72;;;39.70;51.60;;;;;;5064759;28;20233;-47
2021/03/02 11:17:08;;;;;;;5.53;4.28;;;39.60;52.10;;;;;;5064906;28;20228;-50
2021/03/02 11:19:39;;;;;;;4.90;4.40;;;39.40;52.20;;;;;;5064133;28;20219;-49
2021/03/02 11:22:09;;;;;;;6.10;4.78;;;39.20;52.50;;;;;;5065185;28;20210;-53
2021/03/02 11:24:41;;;;;;;4.28;3.83;;;39.00;52.80;;;;;;5064875;28;20251;-48
2021/03/02 11:27:11;;;;;;;4.28;3.88;;;38.70;53.30;;;;;;5064927;28;20197;-49
2021/03/02 11:29:42;;;;;;;5.63;4.00;;;38.40;53.80;;;;;;5072783;27;20211;-51
2021/03/02 11:32:12;;;;;;;4.25;3.85;;;38.20;54.00;;;;;;5115926;27;20230;-51
2021/03/02 11:34:44;;;;;;;5.15;4.65;;;37.90;54.60;;;;;;5128517;27;20199;-48
2021/03/02 11:37:14;;;;;;;4.78;4.20;;;37.60;55.10;;;;;;5137414;27;20199;-48
2021/03/02 11:39:46;;;;;;;5.20;4.47;;;37.40;55.90;;;;;;5129325;27;20207;-49
2021/03/02 11:42:17;;;;;;;5.60;5.03;;;37.10;56.30;;;;;;5127334;27;20731;-48
2021/03/02 11:44:48;;;;;;;4.80;4.18;;;36.90;56.90;;;;;;5118586;27;20239;-48
2021/03/02 11:47:18;;;;;;;5.40;3.90;;;36.70;57.20;;;;;;5124642;27;20195;-49
2021/03/02 11:49:52;;;;;;;4.68;4.28;;;36.40;57.80;;;;;;5127998;27;20302;-47
2021/03/02 11:52:23;;;;;;;4.50;4.10;;;36.30;58.20;;;;;;5136105;27;20639;-47
2021/03/02 11:54:54;;;;;;;5.80;4.95;;;36.10;58.60;;;;;;5139214;27;20850;-48
2021/03/02 11:57:25;;;;;;;7.88;5.43;;;35.90;59.10;;;;;;5136538;27;20634;-48
2021/03/02 11:59:56;;;;;;;7.93;6.25;;;35.70;59.70;;;;;;5141523;27;20191;-51
2021/03/02 12:02:27;;;;;;;6.40;5.80;;;35.40;60.30;;;;;;5139047;27;20241;-50
2021/03/02 12:04:58;;;;;;;6.85;6.25;;;35.30;60.40;;;;;;5124428;27;20221;-48
2021/03/02 12:07:28;;;;;;;7.30;5.65;;;35.10;61.80;;;;;;5126873;27;20214;-49
2021/03/02 12:10:00;;;;;;;6.93;5.80;;;35.00;61.40;;;;;;5127090;27;20248;-53
2021/03/02 12:12:31;;;;;;;6.50;5.90;;;34.90;61.60;;;;;;5125697;27;20195;-54
2021/03/02 12:15:01;;;;;;;6.60;5.88;;;34.80;62.00;;;;;;5138804;27;20679;-50
2021/03/02 12:17:32;;;;;;;6.20;5.60;;;34.80;62.40;;;;;;5142100;27;20466;-48
2021/03/02 12:20:02;;;;;;;7.85;6.85;;;34.70;62.70;;;;;;5087749;28;20200;-54
2021/03/02 12:22:33;;;;;;;7.75;6.43;;;34.60;63.30;;;;;;5082639;28;20363;-52
2021/03/02 12:25:05;;;;;;;8.63;5.97;;;34.50;63.80;;;;;;5081997;28;20204;-52
2021/03/02 12:27:35;;;;;;;8.43;6.30;;;34.40;63.80;;;;;;5087105;28;20294;-51
2021/03/02 12:30:07;;;;;;;7.32;5.63;;;34.30;64.10;;;;;;5087896;28;20223;-49
2021/03/02 12:32:38;;;;;;;7.57;6.10;;;34.30;64.20;;;;;;5078378;28;20736;-52
2021/03/02 12:35:10;;;;;;;6.55;5.82;;;34.20;64.50;;;;;;5077205;28;20215;-48
2021/03/02 12:37:41;;;;;;;7.60;5.95;;;34.10;64.90;;;;;;5077978;28;20641;-48
2021/03/02 12:40:18;;;;;;;9.07;6.22;;;34.10;65.20;;;;;;5081366;28;20848;-50
2021/03/02 12:42:49;;;;;;;6.80;5.55;;;34.10;65.70;;;;;;5084050;28;20217;-50
2021/03/02 12:45:19;;;;;;;7.85;7.03;;;34.00;65.60;;;;;;5083679;28;20287;-48
2021/03/02 12:47:50;;;;;;;9.30;7.63;;;34.00;66.00;;;;;;5081813;28;20692;-49
2021/03/02 12:50:21;;;;;;;7.50;6.65;;;33.90;67.40;;;;;;5083437;27;20207;-50
2021/03/02 12:52:51;;;;;;;7.38;6.15;;;33.80;66.40;;;;;;5127226;27;20207;-48
2021/03/02 12:55:23;;;;;;;7.35;6.45;;;33.80;66.50;;;;;;5126576;27;20282;-50
2021/03/02 12:57:54;;;;;;;6.78;6.05;;;33.80;66.90;;;;;;5126492;27;20272;-48
2021/03/02 13:00:26;;;;;;;6.45;5.75;;;33.70;67.00;;;;;;5124222;27;20710;-48
2021/03/02 13:02:57;;;;;;;7.38;5.22;;;33.70;67.00;;;;;;5121056;27;20219;-51
2021/03/02 13:05:28;;;;;;;7.68;5.60;;;33.70;67.10;;;;;;5127272;27;20223;-50
2021/03/02 13:07:59;;;;;;;7.90;5.63;;;33.60;67.20;;;;;;5127114;27;20397;-49
2021/03/02 13:10:32;;;;;;;10.25;6.30;;;33.60;67.50;;;;;;5115776;27;20199;-52
2021/03/02 13:13:02;;;;;;;7.90;6.18;;;33.60;67.60;;;;;;5060720;28;20670;-49